createdAt,value
2018-06-27T00:00:46.554Z,15.40
2018-06-27T00:06:16.466Z,15.40
2018-06-27T00:11:46.405Z,15.40
2018-06-27T00:17:16.037Z,15.40
2018-06-27T00:22:46.481Z,15.30
2018-06-27T00:28:16.473Z,15.30
2018-06-27T00:33:46.187Z,15.30
2018-06-27T00:39:15.916Z,15.20
2018-06-27T00:44:45.915Z,15.20
2018-06-27T00:50:15.923Z,15.20
2018-06-27T00:55:45.719Z,15.10
2018-06-27T01:01:15.752Z,15.00
2018-06-27T01:06:46.202Z,15.10
2018-06-27T01:12:16.707Z,15.00
2018-06-27T01:17:54.807Z,14.90
2018-06-27T01:23:24.010Z,14.90
2018-06-27T01:28:53.439Z,14.80
2018-06-27T01:34:22.862Z,14.70
2018-06-27T01:39:52.113Z,14.70
2018-06-27T01:45:21.709Z,14.60
2018-06-27T01:50:51.110Z,14.60
2018-06-27T01:56:20.595Z,14.50
2018-06-27T02:01:50.019Z,14.40
2018-06-27T02:07:19.461Z,14.30
2018-06-27T02:12:49.640Z,14.30
2018-06-27T02:18:19.227Z,14.30
2018-06-27T02:23:48.535Z,14.20
2018-06-27T02:29:18.372Z,14.10
2018-06-27T02:34:48.380Z,14.10
2018-06-27T02:40:19.399Z,14.00
2018-06-27T02:45:48.917Z,13.90
2018-06-27T02:51:18.216Z,13.80
2018-06-27T02:56:47.645Z,13.70
2018-06-27T03:02:17.465Z,13.70
2018-06-27T03:07:47.012Z,13.60
2018-06-27T03:13:16.595Z,13.60
2018-06-27T03:18:55.312Z,13.60
2018-06-27T03:24:24.534Z,13.60
2018-06-27T03:29:53.723Z,13.50
2018-06-27T03:35:22.904Z,13.50
2018-06-27T03:40:52.251Z,13.60
2018-06-27T03:46:21.547Z,13.60
2018-06-27T03:51:50.737Z,13.60
2018-06-27T03:57:23.283Z,13.70
2018-06-27T04:02:52.476Z,13.80
2018-06-27T04:08:21.695Z,14.00
2018-06-27T04:13:50.929Z,14.10
2018-06-27T04:24:49.263Z,14.30
2018-06-27T04:30:18.614Z,14.60
2018-06-27T04:35:47.989Z,14.80
2018-06-27T04:41:17.590Z,15.00
2018-06-27T04:46:47.301Z,15.20
2018-06-27T04:52:17.341Z,15.40
2018-06-27T04:57:47.173Z,15.60
2018-06-27T05:03:17.390Z,15.80
2018-06-27T05:08:47.208Z,16.00
2018-06-27T05:14:17.165Z,16.10
2018-06-27T05:19:46.916Z,16.20
2018-06-27T05:25:16.833Z,16.40
2018-06-27T05:30:46.871Z,16.50
2018-06-27T05:36:16.754Z,16.70
2018-06-27T05:41:46.636Z,16.70
2018-06-27T05:47:17.196Z,16.80
2018-06-27T05:52:46.912Z,16.90
2018-06-27T05:58:16.983Z,17.10
2018-06-27T06:03:47.273Z,17.20
2018-06-27T06:09:17.968Z,17.30
2018-06-27T06:14:47.902Z,17.30
2018-06-27T06:20:17.644Z,17.60
2018-06-27T06:25:47.207Z,17.60
2018-06-27T06:31:17.667Z,17.40
2018-06-27T06:36:47.914Z,17.30
2018-06-27T06:42:18.161Z,17.20
2018-06-27T06:47:47.890Z,17.20
2018-06-27T06:53:18.539Z,17.10
2018-06-27T06:58:48.828Z,17.00
2018-06-27T07:04:18.633Z,17.00
2018-06-27T07:09:48.321Z,17.00
2018-06-27T07:15:18.916Z,17.20
2018-06-27T07:20:49.089Z,17.40
2018-06-27T07:26:18.842Z,17.60
2018-06-27T07:31:48.710Z,17.70
2018-06-27T07:37:18.441Z,17.70
2018-06-27T07:42:47.776Z,17.80
2018-06-27T07:48:17.775Z,18.30
2018-06-27T07:53:47.522Z,18.90
2018-06-27T07:59:17.229Z,19.00
2018-06-27T08:04:47.739Z,19.30
2018-06-27T08:10:17.716Z,19.40
2018-06-27T08:15:47.279Z,20.10
2018-06-27T08:21:16.827Z,20.40
2018-06-27T08:26:46.987Z,20.40
2018-06-27T08:32:16.553Z,20.50
2018-06-27T08:37:46.458Z,20.30
2018-06-27T08:43:17.468Z,20.30
2018-06-27T08:48:47.466Z,20.20
2018-06-27T08:54:17.641Z,20.00
2018-06-27T09:05:19.192Z,20.80
2018-06-27T09:10:48.895Z,21.20
2018-06-27T09:16:18.456Z,21.60
2018-06-27T09:21:47.947Z,21.50
2018-06-27T09:27:17.887Z,21.70
2018-06-27T09:32:48.018Z,21.70
2018-06-27T09:38:17.525Z,21.40
2018-06-27T09:43:47.018Z,21.20
2018-06-27T09:49:16.657Z,21.00
2018-06-27T09:54:47.153Z,20.80
2018-06-27T10:00:22.432Z,20.90
2018-06-27T10:05:52.032Z,21.40
2018-06-27T10:11:21.651Z,21.90
2018-06-27T10:16:52.607Z,21.80
2018-06-27T10:22:22.275Z,21.30
2018-06-27T10:27:51.823Z,21.10
2018-06-27T10:33:21.391Z,21.30
2018-06-27T10:38:50.737Z,21.30
2018-06-27T10:44:20.073Z,21.20
2018-06-27T10:49:49.437Z,21.50
2018-06-27T10:55:19.495Z,21.60
2018-06-27T11:00:48.898Z,21.80
2018-06-27T11:06:18.675Z,22.20
2018-06-27T11:11:48.859Z,22.20
2018-06-27T11:17:18.858Z,22.60
2018-06-27T11:22:48.649Z,23.10
2018-06-27T11:28:18.162Z,23.20
2018-06-27T11:33:48.996Z,22.60
2018-06-27T11:39:18.613Z,22.80
2018-06-27T11:44:48.232Z,23.00
2018-06-27T11:50:17.731Z,23.20
2018-06-27T11:55:47.128Z,23.40
2018-06-27T12:01:16.825Z,23.60
2018-06-27T12:06:46.361Z,23.90
2018-06-27T12:12:16.323Z,23.50
2018-06-27T12:17:45.745Z,23.20
2018-06-27T12:23:15.829Z,23.10
2018-06-27T12:28:45.516Z,22.80
2018-06-27T12:34:15.190Z,22.40
2018-06-27T12:39:45.843Z,21.80
2018-06-27T12:45:16.311Z,21.00
2018-06-27T12:50:46.044Z,20.60
2018-06-27T12:56:15.569Z,20.40
2018-06-27T13:01:46.824Z,20.50
2018-06-27T13:07:16.958Z,20.50
2018-06-27T13:12:47.281Z,20.50
2018-06-27T13:18:17.703Z,20.50
2018-06-27T13:23:47.562Z,20.40
2018-06-27T13:29:17.813Z,20.70
2018-06-27T13:34:48.028Z,21.40
2018-06-27T13:40:18.375Z,21.80
2018-06-27T13:45:48.585Z,22.20
2018-06-27T13:51:18.118Z,22.60
2018-06-27T13:56:48.274Z,23.00
2018-06-27T14:02:17.728Z,23.10
2018-06-27T14:07:47.562Z,22.70
2018-06-27T14:13:17.052Z,22.40
2018-06-27T14:18:46.562Z,22.10
2018-06-27T14:29:46.030Z,20.90
2018-06-27T14:35:15.949Z,20.50
2018-06-27T14:40:46.600Z,20.20
2018-06-27T14:46:16.977Z,20.60
2018-06-27T14:51:46.930Z,21.40
2018-06-27T14:57:16.811Z,21.70
2018-06-27T15:02:46.622Z,21.40
2018-06-27T15:08:16.841Z,21.30
2018-06-27T15:13:47.517Z,21.20
2018-06-27T15:19:17.428Z,22.60
2018-06-27T15:24:47.275Z,22.50
2018-06-27T15:30:20.899Z,21.70
2018-06-27T15:35:50.843Z,21.30
2018-06-27T15:41:20.349Z,21.10
2018-06-27T15:46:49.917Z,20.90
2018-06-27T15:52:19.905Z,20.90
2018-06-27T15:57:50.750Z,20.70
2018-06-27T16:03:20.533Z,20.50
2018-06-27T16:08:49.945Z,20.50
2018-06-27T16:14:19.619Z,21.10
2018-06-27T16:19:50.272Z,21.60
2018-06-27T16:25:21.860Z,21.10
2018-06-27T16:30:51.467Z,20.80
2018-06-27T16:36:24.257Z,20.70
2018-06-27T16:41:53.434Z,20.60
2018-06-27T16:47:23.397Z,20.60
2018-06-27T16:52:52.928Z,20.60
2018-06-27T16:58:22.664Z,20.50
2018-06-27T17:04:02.698Z,20.50
2018-06-27T17:09:31.943Z,20.70
2018-06-27T17:15:02.524Z,20.50
2018-06-27T17:20:31.856Z,20.30
2018-06-27T17:26:01.126Z,20.30
2018-06-27T17:31:30.393Z,20.20
2018-06-27T17:36:59.597Z,20.00
2018-06-27T17:42:28.809Z,19.70
2018-06-27T17:47:58.029Z,19.60
2018-06-27T17:53:27.341Z,19.60
2018-06-27T17:58:56.643Z,19.50
2018-06-27T18:04:26.027Z,19.30
2018-06-27T18:09:55.627Z,19.10
2018-06-27T18:15:25.479Z,18.80
2018-06-27T18:20:55.369Z,18.60
2018-06-27T18:26:24.917Z,18.50
2018-06-27T18:31:54.864Z,18.30
2018-06-27T18:37:24.488Z,18.20
2018-06-27T18:42:54.327Z,18.10
2018-06-27T18:48:24.216Z,18.00
2018-06-27T18:53:53.848Z,17.90
2018-06-27T18:59:25.077Z,17.80
2018-06-27T19:04:54.809Z,17.70
2018-06-27T19:10:24.586Z,17.60
2018-06-27T19:15:54.221Z,17.50
2018-06-27T19:21:23.736Z,17.40
2018-06-27T19:26:53.390Z,17.30
2018-06-27T19:32:23.799Z,17.20
2018-06-27T19:37:53.499Z,17.10
2018-06-27T19:43:23.123Z,16.90
2018-06-27T19:48:52.788Z,16.70
2018-06-27T19:54:22.219Z,16.60
2018-06-27T19:59:51.717Z,16.50
2018-06-27T20:05:21.935Z,16.40
2018-06-27T20:10:51.352Z,16.20
2018-06-27T20:16:20.773Z,16.10
2018-06-27T20:21:50.364Z,16.00
2018-06-27T20:27:21.189Z,15.90
2018-06-27T20:32:50.814Z,15.80
2018-06-27T20:38:21.273Z,15.70
2018-06-27T20:43:51.402Z,15.60
2018-06-27T20:49:20.972Z,15.40
2018-06-27T20:54:50.482Z,15.30
2018-06-27T21:00:19.985Z,15.20
2018-06-27T21:05:49.415Z,15.10
2018-06-27T21:11:19.126Z,15.00
2018-06-27T21:16:48.760Z,14.90
2018-06-27T21:22:18.520Z,14.80
2018-06-27T21:27:48.057Z,14.70
2018-06-27T21:33:17.940Z,14.60
2018-06-27T21:38:47.799Z,14.40
2018-06-27T21:44:17.828Z,14.40
2018-06-27T21:49:47.692Z,14.30
2018-06-27T21:55:17.545Z,14.20
2018-06-27T22:00:47.494Z,14.20
2018-06-27T22:06:17.595Z,14.10
2018-06-27T22:11:47.477Z,14.10
2018-06-27T22:17:17.471Z,14.00
2018-06-27T22:22:47.701Z,14.00
2018-06-27T22:28:17.935Z,14.00
2018-06-27T22:33:47.857Z,14.00
2018-06-27T22:39:17.773Z,14.00
2018-06-27T22:44:47.838Z,14.00
2018-06-27T22:50:17.904Z,14.00
2018-06-27T22:55:47.549Z,14.00
2018-06-27T23:01:17.713Z,14.00
2018-06-27T23:06:47.785Z,14.00
2018-06-27T23:12:17.897Z,13.90
2018-06-27T23:17:47.872Z,13.90
2018-06-27T23:23:17.568Z,14.00
2018-06-27T23:28:47.699Z,13.90
2018-06-27T23:34:17.516Z,13.90
2018-06-27T23:39:47.302Z,13.80
2018-06-27T23:45:17.481Z,13.70
2018-06-27T23:50:47.320Z,13.70
2018-06-27T23:56:17.063Z,13.60
